Time;durP1;ratioP1;P1;durP2;ratioP2;P2;SDS_P1;SDS_P2;PMS_P1;PMS_P2;Temp;Humidity;BMP_temperature;BMP_pressure;BME280_temperature;BME280_humidity;BME280_pressure;Samples;Min_cycle;Max_cycle;Signal;HPM_P1;HPM_P2
2023/03/12 00:01:25;;;;;;;1.30;0.80;;;1.70;99.90;;;;;;4230481;27;20349;-63
2023/03/12 00:03:27;;;;;;;1.13;0.50;;;1.70;99.90;;;;;;4231202;27;20329;-62
2023/03/12 00:05:28;;;;;;;0.90;0.50;;;1.60;99.90;;;;;;4230767;27;20305;-63
2023/03/12 00:07:29;;;;;;;1.57;0.70;;;1.70;99.90;;;;;;4242208;27;20724;-66
2023/03/12 00:09:30;;;;;;;2.57;1.03;;;1.70;99.90;;;;;;4229743;28;20306;-62
2023/03/12 00:11:31;;;;;;;1.33;0.80;;;1.70;99.90;;;;;;4230840;28;20373;-63
2023/03/12 00:13:32;;;;;;;0.63;0.50;;;1.70;99.90;;;;;;4229470;28;20271;-62
2023/03/12 00:15:37;;;;;;;1.27;0.70;;;1.60;99.90;;;;;;4230655;28;20313;-62
2023/03/12 00:17:38;;;;;;;1.30;0.57;;;1.60;99.90;;;;;;4229540;28;20253;-63
2023/03/12 00:19:40;;;;;;;1.10;0.70;;;1.60;99.90;;;;;;4231831;27;20293;-63
2023/03/12 00:21:41;;;;;;;2.07;0.80;;;1.60;99.90;;;;;;4229846;28;20297;-63
2023/03/12 00:23:42;;;;;;;1.03;0.40;;;1.60;99.90;;;;;;4230344;27;20272;-62
2023/03/12 00:25:43;;;;;;;1.33;0.70;;;1.60;99.90;;;;;;4232422;27;20308;-62
2023/03/12 00:27:44;;;;;;;1.27;0.70;;;1.60;99.90;;;;;;4247080;27;21191;-63
2023/03/12 00:29:45;;;;;;;0.67;0.60;;;1.60;99.90;;;;;;4246951;27;20267;-63
2023/03/12 00:31:46;;;;;;;0.87;0.80;;;1.60;99.90;;;;;;4235224;27;20276;-63
2023/03/12 00:33:49;;;;;;;0.63;0.50;;;1.60;99.90;;;;;;4231067;27;20260;-63
2023/03/12 00:35:50;;;;;;;1.00;0.60;;;1.60;99.90;;;;;;4241488;27;20333;-63
2023/03/12 00:37:51;;;;;;;1.43;0.67;;;1.60;99.90;;;;;;4238517;27;20268;-64
2023/03/12 00:39:53;;;;;;;1.00;0.50;;;1.60;99.90;;;;;;4228783;28;20288;-62
2023/03/12 00:41:54;;;;;;;1.73;0.80;;;1.60;99.90;;;;;;4230615;27;20280;-63
2023/03/12 00:43:55;;;;;;;1.77;0.73;;;1.60;99.90;;;;;;4229145;27;20288;-63
2023/03/12 00:45:57;;;;;;;0.40;0.40;;;1.60;99.90;;;;;;4238849;27;20271;-62
2023/03/12 00:47:58;;;;;;;0.50;0.40;;;1.50;99.90;;;;;;4232298;27;20272;-61
2023/03/12 00:49:59;;;;;;;1.47;0.57;;;1.50;99.90;;;;;;4236677;27;20312;-64
2023/03/12 00:52:00;;;;;;;1.40;0.93;;;1.60;99.90;;;;;;4238957;27;20296;-62
2023/03/12 00:54:01;;;;;;;0.80;0.70;;;1.60;99.90;;;;;;4230016;27;20321;-64
2023/03/12 00:56:03;;;;;;;1.60;0.83;;;1.50;99.90;;;;;;4240959;27;20295;-61
2023/03/12 00:58:05;;;;;;;1.30;0.70;;;1.50;99.90;;;;;;4232798;27;20823;-63
2023/03/12 01:00:09;;;;;;;1.00;0.80;;;1.50;99.90;;;;;;4229525;28;20665;-63
2023/03/12 01:02:11;;;;;;;2.37;0.70;;;1.60;99.90;;;;;;4229984;27;20731;-63
2023/03/12 01:04:12;;;;;;;2.03;0.70;;;1.50;99.90;;;;;;4239307;27;20332;-62
2023/03/12 01:06:14;;;;;;;3.10;1.00;;;1.50;99.90;;;;;;4245430;27;20328;-63
2023/03/12 01:08:15;;;;;;;19.13;5.90;;;1.40;99.90;;;;;;4236801;27;20832;-65
2023/03/12 01:10:18;;;;;;;2.47;1.10;;;1.40;99.90;;;;;;4242409;27;20338;-63
2023/03/12 01:12:20;;;;;;;1.47;0.90;;;1.40;99.90;;;;;;4246841;27;20731;-67
2023/03/12 01:14:21;;;;;;;1.23;1.13;;;1.40;99.90;;;;;;4245490;27;20272;-62
2023/03/12 01:16:26;;;;;;;1.83;0.70;;;1.40;99.90;;;;;;4246374;27;20287;-63
2023/03/12 01:18:28;;;;;;;1.50;0.80;;;1.40;99.90;;;;;;4244491;27;20750;-62
2023/03/12 01:20:29;;;;;;;2.70;0.90;;;1.40;99.90;;;;;;4240146;27;20264;-63
2023/03/12 01:22:30;;;;;;;2.20;0.90;;;1.40;99.90;;;;;;4228734;27;20264;-62
2023/03/12 01:24:31;;;;;;;1.77;1.13;;;1.40;99.90;;;;;;4229528;28;20279;-63
2023/03/12 01:26:33;;;;;;;2.30;0.87;;;1.30;99.90;;;;;;4229914;27;20735;-62
2023/03/12 01:28:34;;;;;;;1.70;0.90;;;1.30;99.90;;;;;;4238444;27;20624;-65
2023/03/12 01:30:35;;;;;;;1.57;1.03;;;1.30;99.90;;;;;;4245839;27;20605;-63
2023/03/12 01:32:36;;;;;;;1.33;1.00;;;1.30;99.90;;;;;;4245522;27;20263;-62
2023/03/12 01:34:37;;;;;;;1.33;1.13;;;1.30;99.90;;;;;;4245970;27;20680;-63
2023/03/12 01:36:39;;;;;;;2.47;1.57;;;1.30;99.90;;;;;;4243343;27;20295;-62
2023/03/12 01:38:40;;;;;;;0.90;0.90;;;1.30;99.90;;;;;;4244630;27;21067;-62
2023/03/12 01:40:42;;;;;;;1.37;1.10;;;1.30;99.90;;;;;;4233486;27;20695;-62
2023/03/12 01:42:55;;;;;;;2.33;1.30;;;1.30;99.90;;;;;;4246292;27;20715;-61
2023/03/12 01:45:03;;;;;;;2.17;1.37;;;1.30;99.90;;;;;;4244401;27;20380;-62
2023/03/12 01:47:04;;;;;;;3.00;1.33;;;1.30;99.90;;;;;;4229049;28;20271;-63
2023/03/12 01:49:31;;;;;;;1.80;1.57;;;1.30;99.90;;;;;;4228020;27;20317;-63
2023/03/12 01:51:49;;;;;;;3.20;1.23;;;1.20;99.90;;;;;;4229516;27;20267;-63
2023/03/12 01:53:54;;;;;;;2.60;1.60;;;1.20;99.90;;;;;;4228354;27;20728;-65
2023/03/12 01:55:58;;;;;;;1.93;1.33;;;1.20;99.90;;;;;;4240871;27;20287;-62
2023/03/12 01:58:00;;;;;;;3.70;2.20;;;1.20;99.90;;;;;;4240603;27;20596;-62
2023/03/12 02:00:10;;;;;;;3.63;1.90;;;1.10;99.90;;;;;;4244982;27;20271;-62
2023/03/12 02:02:13;;;;;;;3.20;1.60;;;1.10;99.90;;;;;;4245424;27;20267;-65
2023/03/12 02:04:16;;;;;;;2.30;1.60;;;1.10;99.90;;;;;;4236294;27;20036;-62
2023/03/12 02:06:23;;;;;;;3.87;2.50;;;1.10;99.90;;;;;;4227441;28;20260;-62
2023/03/12 02:08:24;;;;;;;4.33;2.63;;;1.00;99.90;;;;;;4230016;27;20817;-63
2023/03/12 02:10:26;;;;;;;1.97;1.40;;;1.00;99.90;;;;;;4231470;27;20808;-63
2023/03/12 02:12:27;;;;;;;2.20;1.73;;;1.00;99.90;;;;;;4237473;27;20268;-62
2023/03/12 02:14:28;;;;;;;4.33;1.90;;;1.00;99.90;;;;;;4227777;28;20271;-63
2023/03/12 02:16:29;;;;;;;1.70;1.40;;;1.00;99.90;;;;;;4228707;28;20348;-61
2023/03/12 02:18:32;;;;;;;2.80;1.40;;;1.00;99.90;;;;;;4227632;27;20646;-62
2023/03/12 02:21:00;;;;;;;1.63;1.10;;;1.00;99.90;;;;;;4229497;27;20268;-63
2023/03/12 02:23:20;;;;;;;3.03;1.37;;;1.00;99.90;;;;;;4227773;28;20284;-61
2023/03/12 02:25:21;;;;;;;1.95;1.40;;;1.00;99.90;;;;;;4245523;27;20271;-63
2023/03/12 02:27:22;;;;;;;3.27;1.20;;;0.90;99.90;;;;;;4229005;27;20039;-62
2023/03/12 02:29:26;;;;;;;4.37;1.37;;;0.90;99.90;;;;;;4240322;27;20345;-63
2023/03/12 02:31:33;;;;;;;4.20;1.37;;;0.90;99.90;;;;;;4233486;27;20267;-62
2023/03/12 02:33:35;;;;;;;3.07;1.50;;;0.90;99.90;;;;;;4229053;28;20256;-63
2023/03/12 02:35:36;;;;;;;2.10;1.40;;;0.90;99.90;;;;;;4227461;28;20303;-63
2023/03/12 02:37:47;;;;;;;1.37;1.20;;;0.80;99.90;;;;;;4228773;27;20341;-63
2023/03/12 02:39:57;;;;;;;1.70;1.10;;;0.80;99.90;;;;;;4227633;28;20313;-64
2023/03/12 02:41:59;;;;;;;1.88;1.30;;;0.80;99.90;;;;;;4228079;28;20322;-63
2023/03/12 02:44:06;;;;;;;2.97;1.73;;;0.80;99.90;;;;;;4227880;28;20152;-66
2023/03/12 02:46:08;;;;;;;2.73;1.50;;;0.80;99.90;;;;;;4227715;28;20260;-63
2023/03/12 02:48:09;;;;;;;1.33;1.10;;;0.80;99.90;;;;;;4228078;28;20658;-64
2023/03/12 02:50:10;;;;;;;4.17;1.50;;;0.80;99.90;;;;;;4243476;27;20283;-65
2023/03/12 02:52:12;;;;;;;1.17;1.07;;;0.70;99.90;;;;;;4245312;28;20304;-63
2023/03/12 02:54:16;;;;;;;1.33;1.17;;;0.70;99.90;;;;;;4232874;28;20267;-62
2023/03/12 02:56:17;;;;;;;1.80;1.43;;;0.70;99.90;;;;;;4245160;28;20827;-64
2023/03/12 02:58:18;;;;;;;2.50;1.60;;;0.70;99.90;;;;;;4244148;28;20316;-63
2023/03/12 03:00:19;;;;;;;1.40;1.30;;;0.60;99.90;;;;;;4235727;28;20259;-63
2023/03/12 03:02:20;;;;;;;3.00;1.67;;;0.60;99.90;;;;;;4229806;28;20306;-62
2023/03/12 03:04:23;;;;;;;2.17;1.30;;;0.60;99.90;;;;;;4233214;27;20800;-63
2023/03/12 03:06:24;;;;;;;1.67;1.10;;;0.60;99.90;;;;;;4230674;28;20731;-66
2023/03/12 03:08:25;;;;;;;3.03;1.30;;;0.60;99.90;;;;;;4232058;27;20337;-61
2023/03/12 03:10:26;;;;;;;3.53;1.87;;;0.60;99.90;;;;;;4230613;28;20816;-62
2023/03/12 03:12:27;;;;;;;2.93;1.50;;;0.60;99.90;;;;;;4240778;27;20263;-62
2023/03/12 03:14:28;;;;;;;2.37;1.30;;;0.60;99.90;;;;;;4247589;27;20276;-62
2023/03/12 03:16:29;;;;;;;4.57;1.50;;;0.60;99.90;;;;;;4247811;27;20287;-63
2023/03/12 03:18:31;;;;;;;2.87;1.37;;;0.60;99.90;;;;;;4231021;28;20260;-61
2023/03/12 03:20:32;;;;;;;2.10;1.40;;;0.60;99.90;;;;;;4231369;27;20333;-62
2023/03/12 03:22:33;;;;;;;2.67;1.67;;;0.60;99.90;;;;;;4231386;28;20313;-63
2023/03/12 03:24:35;;;;;;;3.50;1.37;;;0.50;99.90;;;;;;4230462;28;20684;-62
2023/03/12 03:26:36;;;;;;;1.30;1.20;;;0.50;99.90;;;;;;4231418;27;20392;-63
2023/03/12 03:28:37;;;;;;;2.53;2.20;;;0.60;99.90;;;;;;4231517;27;20342;-64
2023/03/12 03:30:38;;;;;;;3.73;1.47;;;0.60;99.90;;;;;;4231563;28;20650;-63
2023/03/12 03:32:39;;;;;;;5.67;1.70;;;0.60;99.90;;;;;;4230544;28;20268;-63
2023/03/12 03:34:41;;;;;;;1.50;1.00;;;0.60;99.90;;;;;;4231365;28;20264;-63
2023/03/12 03:36:42;;;;;;;2.37;1.30;;;0.60;99.90;;;;;;4231268;27;20840;-62
2023/03/12 03:38:48;;;;;;;4.83;1.73;;;0.60;99.90;;;;;;4242543;27;20283;-65
2023/03/12 03:40:49;;;;;;;2.03;1.70;;;0.60;99.90;;;;;;4230103;28;20356;-63
2023/03/12 03:42:50;;;;;;;3.87;1.43;;;0.50;99.90;;;;;;4232303;27;20321;-65
2023/03/12 03:44:51;;;;;;;2.37;1.27;;;0.60;99.90;;;;;;4230122;28;20280;-67
2023/03/12 03:46:54;;;;;;;2.93;1.70;;;0.60;99.90;;;;;;4231714;27;20268;-61
2023/03/12 03:48:55;;;;;;;3.03;1.40;;;0.60;99.90;;;;;;4230447;28;20304;-65
2023/03/12 03:51:03;;;;;;;4.03;1.23;;;0.50;99.90;;;;;;4235658;27;20808;-63
2023/03/12 03:53:07;;;;;;;2.43;1.53;;;0.60;99.90;;;;;;4244657;27;20271;-61
2023/03/12 03:55:08;;;;;;;1.33;1.23;;;0.60;99.90;;;;;;4229857;28;20321;-61
2023/03/12 03:57:10;;;;;;;2.17;1.77;;;0.50;99.90;;;;;;4244193;27;20291;-62
2023/03/12 03:59:11;;;;;;;3.40;1.47;;;0.60;99.90;;;;;;4246959;27;20677;-63
2023/03/12 04:01:13;;;;;;;2.07;1.50;;;0.60;99.90;;;;;;4245928;27;20268;-62
2023/03/12 04:03:14;;;;;;;3.70;1.57;;;0.60;99.90;;;;;;4244134;27;20320;-62
2023/03/12 04:05:18;;;;;;;1.97;1.30;;;0.60;99.90;;;;;;4233302;27;20275;-62
2023/03/12 04:07:20;;;;;;;1.87;1.30;;;0.60;99.90;;;;;;4234620;27;20321;-64
2023/03/12 04:09:21;;;;;;;1.87;1.40;;;0.50;99.90;;;;;;4237572;27;20324;-63
2023/03/12 04:11:23;;;;;;;2.03;1.40;;;0.50;99.90;;;;;;4246606;27;20336;-63
2023/03/12 04:13:24;;;;;;;3.27;1.30;;;0.60;99.90;;;;;;4242323;27;20283;-62
2023/03/12 04:15:25;;;;;;;1.97;1.30;;;0.50;99.90;;;;;;4244944;27;20267;-63
2023/03/12 04:17:26;;;;;;;2.17;1.80;;;0.50;99.90;;;;;;4247198;27;20705;-65
2023/03/12 04:19:27;;;;;;;3.90;1.50;;;0.50;99.90;;;;;;4246304;27;20657;-62
2023/03/12 04:21:28;;;;;;;1.97;1.10;;;0.50;99.90;;;;;;4237320;27;20268;-65
2023/03/12 04:23:29;;;;;;;4.00;1.37;;;0.50;99.90;;;;;;4236083;27;20305;-62
2023/03/12 04:25:30;;;;;;;2.53;1.40;;;0.40;99.90;;;;;;4229615;28;20341;-63
2023/03/12 04:27:33;;;;;;;6.30;1.97;;;0.40;99.90;;;;;;4230448;27;20280;-61
2023/03/12 04:29:34;;;;;;;3.27;1.60;;;0.40;99.90;;;;;;4229336;28;20317;-62
2023/03/12 04:31:35;;;;;;;2.30;1.50;;;0.40;99.90;;;;;;4241554;27;20287;-65
2023/03/12 04:33:38;;;;;;;2.13;1.37;;;0.40;99.90;;;;;;4245133;27;20317;-65
2023/03/12 04:35:45;;;;;;;5.37;1.53;;;0.40;99.90;;;;;;4229988;28;20280;-62
2023/03/12 04:37:46;;;;;;;2.63;1.40;;;0.30;99.90;;;;;;4231139;27;20325;-62
2023/03/12 04:39:47;;;;;;;2.10;1.17;;;0.30;99.90;;;;;;4241707;27;20276;-63
2023/03/12 04:41:48;;;;;;;2.73;1.30;;;0.20;99.90;;;;;;4228952;28;20260;-61
2023/03/12 04:43:50;;;;;;;2.40;1.40;;;0.10;99.90;;;;;;4230114;28;20683;-62
2023/03/12 04:45:51;;;;;;;4.33;1.23;;;0.10;99.90;;;;;;4232239;27;20340;-62
2023/03/12 04:47:52;;;;;;;3.47;1.27;;;0.10;99.90;;;;;;4234430;27;20742;-62
2023/03/12 04:49:53;;;;;;;3.23;1.50;;;0.10;99.90;;;;;;4245742;27;20271;-62
2023/03/12 04:51:54;;;;;;;3.97;1.47;;;0.00;99.90;;;;;;4231588;27;20604;-63
2023/03/12 04:53:56;;;;;;;3.93;1.37;;;0.00;99.90;;;;;;4234236;27;20267;-62
2023/03/12 04:55:58;;;;;;;3.50;2.07;;;0.00;99.90;;;;;;4229215;28;20264;-61
2023/03/12 04:57:59;;;;;;;2.37;1.40;;;-0.10;99.90;;;;;;4237866;27;20291;-61
2023/03/12 05:00:00;;;;;;;3.73;1.63;;;-0.10;99.90;;;;;;4245981;27;20272;-62
2023/03/12 05:02:01;;;;;;;3.43;1.60;;;-0.10;99.90;;;;;;4239680;27;20263;-62
2023/03/12 05:04:03;;;;;;;1.90;1.17;;;-0.10;99.90;;;;;;4244611;27;20329;-62
2023/03/12 05:06:04;;;;;;;2.67;1.33;;;-0.10;99.90;;;;;;4246902;27;20259;-66
2023/03/12 05:08:06;;;;;;;4.17;1.73;;;-0.10;99.90;;;;;;4236576;27;21137;-64
2023/03/12 05:10:08;;;;;;;3.53;2.00;;;0.10;99.90;;;;;;4240015;27;20332;-62
2023/03/12 05:12:09;;;;;;;2.53;1.57;;;0.20;99.90;;;;;;4228458;28;20268;-61
2023/03/12 05:14:11;;;;;;;5.47;1.63;;;0.30;99.90;;;;;;4229826;28;20324;-62
2023/03/12 05:16:13;;;;;;;2.17;1.50;;;0.40;99.90;;;;;;4229464;27;20955;-62
2023/03/12 05:18:14;;;;;;;2.67;1.60;;;0.60;99.90;;;;;;4244261;27;20283;-62
2023/03/12 05:20:16;;;;;;;2.63;1.33;;;0.60;99.90;;;;;;4245168;27;20267;-61
2023/03/12 05:22:17;;;;;;;1.73;1.00;;;0.80;99.90;;;;;;4244525;27;20279;-62
2023/03/12 05:24:20;;;;;;;2.57;1.67;;;0.90;99.90;;;;;;4245327;27;20259;-62
2023/03/12 05:26:25;;;;;;;2.80;1.50;;;1.00;99.90;;;;;;4245698;27;20272;-66
2023/03/12 05:28:27;;;;;;;2.93;1.67;;;1.20;99.90;;;;;;4245546;27;20321;-63
2023/03/12 05:30:28;;;;;;;3.53;1.47;;;1.50;99.90;;;;;;4245254;27;20336;-62
2023/03/12 05:32:29;;;;;;;2.87;1.63;;;1.80;99.90;;;;;;4234096;27;20820;-62
2023/03/12 05:34:30;;;;;;;2.30;1.87;;;2.10;99.90;;;;;;4234721;27;20263;-61
2023/03/12 05:36:31;;;;;;;5.57;1.70;;;2.30;99.90;;;;;;4244298;27;20827;-62
2023/03/12 05:38:33;;;;;;;2.57;1.20;;;2.50;99.90;;;;;;4236852;27;20276;-62
2023/03/12 05:40:34;;;;;;;3.83;1.57;;;2.70;99.90;;;;;;4241969;27;20343;-62
2023/03/12 05:42:35;;;;;;;2.40;1.10;;;2.90;99.90;;;;;;4244398;27;20364;-63
2023/03/12 05:44:36;;;;;;;2.63;1.30;;;3.00;99.90;;;;;;4244294;27;20709;-63
2023/03/12 05:46:38;;;;;;;1.80;1.17;;;3.00;99.90;;;;;;4233554;27;20279;-63
2023/03/12 05:48:39;;;;;;;2.87;1.57;;;3.00;99.90;;;;;;4231181;27;20318;-62
2023/03/12 05:50:40;;;;;;;2.77;1.80;;;3.00;99.90;;;;;;4228167;27;20272;-62
2023/03/12 05:52:41;;;;;;;2.63;1.00;;;3.00;99.90;;;;;;4230655;27;20669;-63
2023/03/12 05:54:42;;;;;;;2.37;1.40;;;3.10;99.90;;;;;;4229959;27;20256;-64
2023/03/12 05:56:43;;;;;;;1.90;1.30;;;3.10;99.90;;;;;;4227295;27;21216;-62
2023/03/12 05:58:47;;;;;;;3.03;1.40;;;3.20;99.90;;;;;;4228514;27;20276;-62
2023/03/12 06:00:48;;;;;;;2.83;1.57;;;3.50;99.90;;;;;;4229011;27;20264;-63
2023/03/12 06:02:49;;;;;;;2.00;1.30;;;3.50;99.90;;;;;;4241138;27;20271;-62
2023/03/12 06:04:50;;;;;;;2.67;1.10;;;3.60;99.90;;;;;;4235928;27;20272;-63
2023/03/12 06:06:52;;;;;;;4.03;1.20;;;3.80;99.90;;;;;;4228686;28;20333;-63
2023/03/12 06:08:53;;;;;;;1.67;1.00;;;4.10;99.70;;;;;;4228666;27;20678;-62
2023/03/12 06:10:54;;;;;;;3.93;1.87;;;3.90;98.70;;;;;;4229851;27;20305;-63
2023/03/12 06:12:56;;;;;;;1.23;0.87;;;3.70;98.30;;;;;;4239617;27;20332;-63
2023/03/12 06:14:57;;;;;;;4.40;1.20;;;3.60;99.00;;;;;;4243993;27;20839;-62
2023/03/12 06:16:59;;;;;;;1.87;1.10;;;3.90;98.80;;;;;;4233034;27;20292;-62
2023/03/12 06:19:02;;;;;;;2.30;1.30;;;4.20;97.80;;;;;;4245691;27;20812;-63
2023/03/12 06:21:11;;;;;;;1.63;1.03;;;4.20;97.20;;;;;;4244115;27;20312;-65
2023/03/12 06:23:12;;;;;;;2.53;1.30;;;4.40;97.40;;;;;;4238429;27;20662;-62
2023/03/12 06:25:14;;;;;;;2.60;1.10;;;4.70;97.30;;;;;;4228387;27;20306;-63
2023/03/12 06:27:16;;;;;;;3.47;1.40;;;4.90;96.70;;;;;;4228454;28;20822;-63
2023/03/12 06:29:17;;;;;;;2.63;1.30;;;5.00;96.00;;;;;;4239847;27;20750;-62
2023/03/12 06:31:19;;;;;;;2.33;1.20;;;4.90;95.20;;;;;;4245035;27;20271;-64
2023/03/12 06:33:21;;;;;;;2.40;1.27;;;4.90;95.10;;;;;;4245054;27;20260;-63
2023/03/12 06:35:22;;;;;;;4.87;1.50;;;5.10;94.80;;;;;;4243283;27;20300;-64
2023/03/12 06:37:23;;;;;;;2.77;1.30;;;5.40;94.40;;;;;;4242627;27;20299;-60
2023/03/12 06:39:24;;;;;;;2.80;1.53;;;5.60;94.20;;;;;;4242265;27;20320;-61
2023/03/12 06:41:26;;;;;;;1.37;1.10;;;5.90;93.70;;;;;;4243381;27;20312;-62
2023/03/12 06:43:29;;;;;;;3.20;1.07;;;5.70;93.00;;;;;;4241941;27;20264;-63
2023/03/12 06:45:30;;;;;;;3.17;1.10;;;5.40;92.60;;;;;;4227983;28;20268;-63
2023/03/12 06:47:32;;;;;;;2.80;1.20;;;5.30;93.00;;;;;;4227190;28;20673;-61
2023/03/12 06:49:34;;;;;;;2.07;1.00;;;5.20;92.60;;;;;;4240331;27;20275;-62
2023/03/12 06:51:36;;;;;;;3.07;1.40;;;5.00;92.50;;;;;;4227044;28;20812;-62
2023/03/12 06:53:37;;;;;;;2.73;1.20;;;5.10;92.60;;;;;;4228252;28;20329;-64
2023/03/12 06:55:38;;;;;;;2.03;1.00;;;5.10;92.70;;;;;;4228111;28;20670;-62
2023/03/12 06:57:39;;;;;;;3.13;1.47;;;5.10;92.40;;;;;;4228340;28;20326;-63
2023/03/12 06:59:41;;;;;;;3.83;1.90;;;5.40;92.20;;;;;;4226877;28;20256;-60
2023/03/12 07:01:42;;;;;;;2.43;1.07;;;5.40;91.90;;;;;;4233397;28;20812;-61
2023/03/12 07:03:43;;;;;;;1.27;0.70;;;5.40;91.90;;;;;;4234698;28;20316;-62
2023/03/12 07:05:45;;;;;;;1.77;1.07;;;5.30;91.80;;;;;;4237296;27;20264;-67
2023/03/12 07:07:46;;;;;;;7.33;1.50;;;5.40;91.50;;;;;;4235055;28;20324;-63
2023/03/12 07:09:48;;;;;;;3.43;1.30;;;5.30;91.00;;;;;;4238846;27;20324;-62
2023/03/12 07:11:49;;;;;;;1.33;0.80;;;5.20;91.20;;;;;;4241575;28;20268;-60
2023/03/12 07:13:50;;;;;;;2.93;1.10;;;5.20;91.40;;;;;;4232115;27;20325;-62
2023/03/12 07:15:52;;;;;;;2.00;1.20;;;4.70;91.20;;;;;;4238880;28;20355;-63
2023/03/12 07:17:53;;;;;;;2.33;0.90;;;4.40;91.10;;;;;;4239813;28;20372;-62
2023/03/12 07:19:54;;;;;;;3.47;1.30;;;4.20;91.70;;;;;;4240033;28;20271;-62
2023/03/12 07:21:56;;;;;;;4.83;1.23;;;4.00;91.10;;;;;;4242430;28;20308;-63
2023/03/12 07:23:57;;;;;;;2.87;0.90;;;4.00;92.10;;;;;;4240821;28;20283;-62
2023/03/12 07:25:58;;;;;;;1.50;0.93;;;4.20;92.10;;;;;;4243660;28;20292;-65
2023/03/12 07:27:59;;;;;;;2.40;1.10;;;4.00;91.40;;;;;;4244641;28;20796;-63
2023/03/12 07:30:00;;;;;;;2.00;0.67;;;4.20;91.80;;;;;;4231438;28;21208;-62
2023/03/12 07:32:01;;;;;;;1.73;1.13;;;4.40;92.00;;;;;;4228637;28;20364;-62
2023/03/12 07:34:04;;;;;;;1.40;1.00;;;4.50;91.30;;;;;;4227156;28;20275;-65
2023/03/12 07:36:06;;;;;;;1.47;0.93;;;4.50;91.10;;;;;;4228233;28;20263;-61
2023/03/12 07:38:07;;;;;;;3.40;0.90;;;4.30;90.60;;;;;;4227084;28;20305;-62
2023/03/12 07:40:09;;;;;;;1.70;1.03;;;4.30;91.00;;;;;;4227911;28;20264;-69
2023/03/12 07:42:11;;;;;;;1.30;0.90;;;4.20;90.80;;;;;;4234613;28;20727;-63
2023/03/12 07:44:12;;;;;;;5.30;0.90;;;4.00;91.00;;;;;;4232651;28;20348;-63
2023/03/12 07:46:14;;;;;;;0.97;0.70;;;3.80;91.20;;;;;;4233496;28;20263;-67
2023/03/12 07:48:15;;;;;;;2.40;1.20;;;3.80;91.40;;;;;;4231467;28;20290;-63
2023/03/12 07:50:20;;;;;;;2.90;1.20;;;3.70;90.90;;;;;;4231042;28;20287;-64
2023/03/12 07:52:22;;;;;;;1.30;0.87;;;3.70;91.00;;;;;;4230859;27;20301;-64
2023/03/12 07:54:27;;;;;;;1.27;0.87;;;3.90;91.30;;;;;;4241724;27;20755;-62
2023/03/12 07:56:28;;;;;;;1.77;0.93;;;3.90;91.10;;;;;;4229446;28;20673;-61
2023/03/12 07:58:30;;;;;;;2.10;0.97;;;3.90;91.10;;;;;;4230913;28;20309;-63
2023/03/12 08:00:31;;;;;;;1.97;1.10;;;3.90;91.00;;;;;;4229790;28;20297;-70
2023/03/12 08:02:33;;;;;;;2.40;1.10;;;3.80;91.10;;;;;;4231665;27;20313;-62
2023/03/12 08:04:34;;;;;;;4.40;1.30;;;3.90;91.20;;;;;;4229848;27;20264;-60
2023/03/12 08:06:37;;;;;;;2.07;0.80;;;4.20;91.20;;;;;;4230350;28;20329;-62
2023/03/12 08:08:40;;;;;;;3.50;1.20;;;4.20;90.90;;;;;;4232007;27;20257;-61
2023/03/12 08:10:41;;;;;;;2.33;0.90;;;4.30;91.10;;;;;;4231239;27;20743;-62
2023/03/12 08:12:43;;;;;;;2.73;1.20;;;4.40;90.90;;;;;;4231191;27;20487;-60
2023/03/12 08:14:45;;;;;;;2.07;0.87;;;4.30;91.10;;;;;;4245036;27;20267;-61
2023/03/12 08:16:46;;;;;;;1.40;0.93;;;4.20;90.90;;;;;;4232223;27;20736;-61
2023/03/12 08:18:47;;;;;;;1.80;1.03;;;3.90;90.80;;;;;;4244608;27;20272;-62
2023/03/12 08:20:50;;;;;;;2.27;0.80;;;3.90;91.00;;;;;;4247052;27;20742;-62
2023/03/12 08:22:51;;;;;;;2.03;1.10;;;3.90;90.80;;;;;;4240785;27;20256;-61
2023/03/12 08:24:52;;;;;;;3.27;1.33;;;3.90;91.20;;;;;;4239581;27;20328;-64
2023/03/12 08:26:54;;;;;;;2.03;1.40;;;4.10;91.20;;;;;;4246139;27;20263;-62
2023/03/12 08:28:56;;;;;;;3.90;1.50;;;4.20;91.10;;;;;;4242097;27;20268;-61
2023/03/12 08:30:58;;;;;;;4.13;1.30;;;4.30;90.90;;;;;;4228934;28;20603;-63
2023/03/12 08:33:00;;;;;;;1.20;1.00;;;4.50;90.80;;;;;;4230484;27;20329;-63
2023/03/12 08:35:01;;;;;;;2.00;1.10;;;4.70;90.60;;;;;;4230470;27;20803;-65
2023/03/12 08:37:02;;;;;;;2.57;1.67;;;4.60;90.30;;;;;;4243700;27;20295;-62
2023/03/12 08:39:03;;;;;;;1.33;1.00;;;4.70;90.80;;;;;;4242403;27;20324;-61
2023/03/12 08:41:05;;;;;;;1.33;1.10;;;4.90;90.40;;;;;;4237387;27;20271;-67
2023/03/12 08:43:06;;;;;;;2.70;0.87;;;5.00;90.40;;;;;;4246242;27;20269;-62
2023/03/12 08:45:09;;;;;;;1.53;1.00;;;5.00;90.20;;;;;;4241361;27;20279;-62
2023/03/12 08:47:10;;;;;;;1.70;0.90;;;5.00;88.70;;;;;;4239078;27;20838;-61
2023/03/12 08:49:11;;;;;;;3.53;0.93;;;4.90;88.00;;;;;;4245743;27;20664;-61
2023/03/12 08:51:12;;;;;;;3.87;1.10;;;5.00;88.90;;;;;;4243474;27;20324;-63
2023/03/12 08:53:14;;;;;;;2.90;1.00;;;5.00;87.50;;;;;;4236939;27;20332;-61
2023/03/12 08:55:15;;;;;;;4.90;2.10;;;4.90;87.90;;;;;;4235418;27;20305;-64
2023/03/12 08:57:16;;;;;;;2.77;1.20;;;5.00;88.40;;;;;;4228426;28;20645;-61
2023/03/12 08:59:19;;;;;;;3.33;1.33;;;5.00;87.90;;;;;;4229926;27;20276;-62
2023/03/12 09:01:20;;;;;;;4.77;2.20;;;4.90;87.90;;;;;;4228126;28;20287;-63
2023/03/12 09:03:22;;;;;;;1.60;0.90;;;4.90;87.50;;;;;;4230956;27;20328;-63
2023/03/12 09:05:24;;;;;;;2.43;1.07;;;4.90;87.30;;;;;;4246057;27;20259;-63
2023/03/12 09:07:25;;;;;;;3.43;1.30;;;4.80;86.70;;;;;;4246096;27;20335;-63
2023/03/12 09:09:26;;;;;;;1.57;0.67;;;4.80;86.60;;;;;;4243161;27;20271;-62
2023/03/12 09:11:27;;;;;;;6.93;1.77;;;4.80;86.50;;;;;;4235333;27;20624;-61
2023/03/12 09:13:28;;;;;;;9.77;3.50;;;4.80;86.90;;;;;;4234974;27;20597;-59
2023/03/12 09:15:30;;;;;;;2.60;1.40;;;5.00;87.30;;;;;;4228495;28;20594;-64
2023/03/12 09:17:31;;;;;;;2.00;1.10;;;5.20;86.80;;;;;;4227717;27;20333;-62
2023/03/12 09:19:32;;;;;;;2.90;1.63;;;5.20;86.00;;;;;;4228917;27;20290;-65
2023/03/12 09:21:33;;;;;;;2.63;1.50;;;5.30;85.40;;;;;;4234143;27;20321;-64
2023/03/12 09:23:34;;;;;;;1.47;0.80;;;5.20;85.10;;;;;;4243977;27;20260;-61
2023/03/12 09:25:35;;;;;;;4.37;1.33;;;5.20;84.70;;;;;;4245878;27;20666;-61
2023/03/12 09:27:46;;;;;;;2.70;1.30;;;5.00;84.40;;;;;;4228590;27;20321;-66
2023/03/12 09:29:48;;;;;;;2.85;1.20;;;4.80;84.20;;;;;;4229542;28;20333;-61
2023/03/12 09:31:50;;;;;;;3.73;1.20;;;4.60;85.40;;;;;;4227745;28;20024;-69
2023/03/12 09:33:51;;;;;;;2.37;1.80;;;4.70;86.10;;;;;;4228409;28;20321;-63
2023/03/12 09:35:59;;;;;;;2.77;1.53;;;4.70;85.70;;;;;;4227552;28;20325;-63
2023/03/12 09:38:02;;;;;;;2.83;1.17;;;4.70;86.00;;;;;;4232161;27;20275;-62
2023/03/12 09:40:06;;;;;;;3.03;1.97;;;4.90;86.70;;;;;;4244899;27;20260;-64
2023/03/12 09:42:19;;;;;;;3.37;1.20;;;5.20;85.70;;;;;;4246065;27;20779;-64
2023/03/12 09:44:33;;;;;;;1.97;1.00;;;5.30;84.90;;;;;;4233859;27;20776;-63
2023/03/12 09:46:41;;;;;;;2.80;1.00;;;5.50;84.90;;;;;;4228939;28;20264;-62
2023/03/12 09:48:42;;;;;;;3.10;1.30;;;5.60;84.80;;;;;;4227699;28;20764;-62
2023/03/12 09:50:47;;;;;;;3.07;1.40;;;5.50;84.40;;;;;;4235187;27;20267;-61
2023/03/12 09:53:20;;;;;;;4.87;2.30;;;5.70;83.90;;;;;;4235337;27;20698;-61
2023/03/12 09:55:22;;;;;;;2.83;2.07;;;5.70;81.70;;;;;;4211324;28;20309;-62
2023/03/12 09:57:25;;;;;;;2.10;1.40;;;5.50;83.30;;;;;;4240801;27;20283;-67
2023/03/12 09:59:26;;;;;;;3.53;1.90;;;5.50;83.90;;;;;;4245744;27;20328;-62
2023/03/12 10:01:51;;;;;;;1.50;1.40;;;5.60;84.30;;;;;;4244454;27;20321;-63
2023/03/12 10:03:55;;;;;;;6.17;3.17;;;5.70;83.70;;;;;;4245356;27;20800;-62
2023/03/12 10:06:20;;;;;;;3.03;1.70;;;5.80;83.80;;;;;;4244188;27;20271;-63
2023/03/12 10:08:50;;;;;;;8.87;4.80;;;5.70;81.30;;;;;;4242216;27;20817;-61
2023/03/12 10:10:56;;;;;;;2.23;1.63;;;5.60;80.60;;;;;;4227395;28;20260;-63
2023/03/12 10:13:35;;;;;;;2.93;1.67;;;5.60;81.80;;;;;;4227729;28;20244;-62
2023/03/12 10:16:15;;;;;;;19.20;4.63;;;5.70;81.30;;;;;;4242171;27;20812;-64
2023/03/12 10:18:35;;;;;;;2.70;1.40;;;5.80;82.80;;;;;;4244555;27;20676;-63
2023/03/12 10:20:39;;;;;;;3.83;1.80;;;5.70;79.90;;;;;;4244580;27;20060;-64
2023/03/12 10:22:55;;;;;;;1.37;1.00;;;5.60;81.40;;;;;;4243066;27;20300;-63
2023/03/12 10:25:21;;;;;;;2.43;1.13;;;5.50;79.90;;;;;;4243802;27;20268;-64
2023/03/12 10:27:27;;;;;;;6.17;3.00;;;5.30;80.40;;;;;;4244240;27;20308;-64
2023/03/12 10:29:33;;;;;;;9.47;5.47;;;5.40;80.50;;;;;;4235509;27;20264;-69
2023/03/12 10:31:47;;;;;;;6.80;3.93;;;5.60;80.70;;;;;;4234435;27;20264;-66
2023/03/12 10:34:00;;;;;;;4.20;1.50;;;5.50;79.80;;;;;;4231572;27;20669;-63
2023/03/12 10:36:09;;;;;;;4.40;2.63;;;5.60;80.20;;;;;;4228015;27;20694;-67
2023/03/12 10:38:16;;;;;;;11.13;5.07;;;5.60;79.70;;;;;;4228179;28;20670;-65
2023/03/12 10:40:25;;;;;;;6.27;3.23;;;5.60;80.80;;;;;;4228160;28;20248;-65
2023/03/12 10:42:29;;;;;;;8.80;4.13;;;5.80;81.00;;;;;;4228104;28;20252;-70
2023/03/12 10:44:30;;;;;;;4.37;1.90;;;5.90;81.20;;;;;;4226826;28;20344;-64
2023/03/12 10:46:45;;;;;;;2.23;1.20;;;5.90;80.70;;;;;;4228089;28;20268;-65
2023/03/12 10:48:46;;;;;;;2.40;1.30;;;5.70;78.40;;;;;;4226995;28;20248;-69
2023/03/12 10:51:02;;;;;;;2.53;1.03;;;5.60;79.80;;;;;;4228427;27;20276;-66